Terminal Aerodrome Forecast
Issued by NWS

Home | Current Version | Previous Version | Text Only | Print | Product List | Glossary On
Versions: 1 2 3 4 5 6 7 8 9 10 11 12 13 14 15 16 17
000
FTUS46 KEKA 300916 AAA
TAFUKI
TAF AMD
KUKI 300916Z 3009/3106 VRB03KT P6SM SCT250
     FM301900 33011KT P6SM VCSH SCT060 BKN150 BKN250
     FM302100 34011G16KT P6SM SCT150 SCT250=

USA.gov is the U.S. government's official web portal to all federal, state and local government web resources and services.